South Barrington, Illinois
Current Conditions -  °F | °C
As of 1:52 AM on Monday 24 Nov 2014 (Local Time) from KPWK Reporting Station
Light Rain Light Rain  
Wind Chill: 46°   Ceiling: 700
Heat Index: 49°   Visibility: 9mi
Dew Point: 48°   Wind: 7mph
Humidity: 97%   Direction: 240°WSW
Pressure: 29.09"   Gusts: NA
Location:  42.1512°N, 88.1636°W
Report Text: KPWK 240752Z AUTO 24006KT 9SM -RA OVC007 09/09 A2909 RMK AO2 SLP849 P0002 T00940089
Loading
Personal Weather Stations






























Interactive Weather Map New forecast layout! Learn more

10-Day Weather Forecast

Advertisements
Track Severe Weather on mobile